Time;durP1;ratioP1;P1;durP2;ratioP2;P2;SDS_P1;SDS_P2;PMS_P1;PMS_P2;Temp;Humidity;BMP_temperature;BMP_pressure;BME280_temperature;BME280_humidity;BME280_pressure;Samples;Min_cycle;Max_cycle;Signal;HPM_P1;HPM_P2
2024/03/19 00:01:02;;;;;;;77.75;39.25;;;;;;;-1.35;95.42;100753.81;1814436;77;25694;-62
2024/03/19 00:03:30;;;;;;;76.50;39.13;;;;;;;-1.38;95.51;100750.30;1813380;77;25998;-61
2024/03/19 00:05:59;;;;;;;74.43;38.70;;;;;;;-1.36;95.64;100756.19;1818613;77;25890;-60
2024/03/19 00:08:27;;;;;;;73.28;37.00;;;;;;;-1.37;95.58;100758.53;1816615;77;25528;-60
2024/03/19 00:10:53;;;;;;;73.83;36.83;;;;;;;-1.40;95.59;100753.66;1831207;77;25703;-62
2024/03/19 00:13:22;;;;;;;68.87;36.17;;;;;;;-1.40;95.60;100755.51;1807174;77;25772;-60
2024/03/19 00:15:51;;;;;;;71.35;36.42;;;;;;;-1.41;95.74;100752.05;1823714;77;27392;-62
2024/03/19 00:18:18;;;;;;;72.00;34.15;;;;;;;-1.44;95.76;100751.16;1827275;77;25433;-58
2024/03/19 00:20:44;;;;;;;72.37;35.20;;;;;;;-1.43;95.77;100759.92;1816153;77;25733;-59
2024/03/19 00:23:11;;;;;;;68.47;34.53;;;;;;;-1.46;95.82;100759.85;1832514;77;25392;-60
2024/03/19 00:25:37;;;;;;;68.20;33.90;;;;;;;-1.47;95.77;100759.55;1820376;77;25401;-58
2024/03/19 00:28:07;;;;;;;60.88;33.35;;;;;;;-1.49;95.64;100760.80;1827132;77;27528;-61
2024/03/19 00:30:34;;;;;;;67.78;36.45;;;;;;;-1.51;95.67;100757.84;1838828;77;25406;-58
2024/03/19 00:33:00;;;;;;;69.65;35.28;;;;;;;-1.53;95.70;100759.91;1827957;77;25711;-59
2024/03/19 00:35:27;;;;;;;68.22;34.58;;;;;;;-1.54;95.67;100759.59;1824523;77;26401;-59
2024/03/19 00:37:53;;;;;;;66.12;34.40;;;;;;;-1.56;95.57;100761.66;1817529;77;25524;-59
2024/03/19 00:40:20;;;;;;;70.42;35.68;;;;;;;-1.58;95.48;100757.09;1837252;77;27244;-60
2024/03/19 00:42:47;;;;;;;73.67;36.35;;;;;;;-1.60;95.38;100752.52;1808601;78;25357;-59
2024/03/19 00:45:14;;;;;;;66.07;35.55;;;;;;;-1.63;95.46;100758.25;1817824;77;25473;-58
2024/03/19 00:47:40;;;;;;;73.07;34.83;;;;;;;-1.65;95.56;100755.02;1826934;77;25900;-60
2024/03/19 00:50:07;;;;;;;71.62;36.13;;;;;;;-1.67;95.78;100751.74;1833478;77;25431;-60
2024/03/19 00:52:34;;;;;;;64.40;33.63;;;;;;;-1.67;95.71;100755.72;1836976;77;27299;-62
2024/03/19 00:55:00;;;;;;;64.03;31.62;;;;;;;-1.70;95.62;100764.13;1823659;77;25542;-60
2024/03/19 00:57:27;;;;;;;66.00;32.98;;;;;;;-1.72;95.63;100760.86;1824273;77;25474;-61
2024/03/19 00:59:55;;;;;;;69.20;33.28;;;;;;;-1.74;95.64;100760.27;1808869;77;25468;-60
2024/03/19 01:02:22;;;;;;;60.98;32.53;;;;;;;-1.76;95.69;100763.14;1814040;77;25396;-61
2024/03/19 01:04:49;;;;;;;65.17;33.28;;;;;;;-1.74;96.04;100763.76;1815417;77;27375;-58
2024/03/19 01:07:18;;;;;;;65.52;34.45;;;;;;;-1.73;96.30;100765.89;1830178;77;25905;-61
2024/03/19 01:09:46;;;;;;;66.87;33.48;;;;;;;-1.73;96.23;100765.89;1834285;77;25443;-61
2024/03/19 01:12:14;;;;;;;67.82;34.65;;;;;;;-1.75;95.92;100762.64;1829212;77;32737;-61
2024/03/19 01:14:40;;;;;;;64.35;34.33;;;;;;;-1.77;95.67;100767.33;1816593;77;25450;-59
2024/03/19 01:17:07;;;;;;;64.42;32.98;;;;;;;-1.79;95.93;100764.89;1830674;77;28373;-60
2024/03/19 01:19:34;;;;;;;66.07;34.80;;;;;;;-1.78;96.28;100765.20;1817552;77;25453;-60
2024/03/19 01:22:00;;;;;;;63.48;32.20;;;;;;;-1.78;96.59;100763.88;1826516;77;25818;-60
2024/03/19 01:24:27;;;;;;;64.37;34.00;;;;;;;-1.76;96.90;100765.79;1816537;77;25913;-61
2024/03/19 01:26:54;;;;;;;69.67;35.00;;;;;;;-1.72;97.24;100765.67;1829283;77;25409;-61
2024/03/19 01:29:20;;;;;;;76.92;35.85;;;;;;;-1.68;97.27;100763.40;1837090;77;28462;-61
2024/03/19 01:31:46;;;;;;;67.85;34.75;;;;;;;-1.65;97.51;100761.64;1834088;77;25790;-61
2024/03/19 01:34:13;;;;;;;69.45;35.60;;;;;;;-1.60;97.52;100764.95;1811313;77;25706;-61
2024/03/19 01:36:40;;;;;;;67.82;35.38;;;;;;;-1.58;97.56;100767.70;1820061;77;25578;-62
2024/03/19 01:39:09;;;;;;;64.85;34.35;;;;;;;-1.56;97.48;100762.98;1817825;77;25833;-61
2024/03/19 01:41:35;;;;;;;69.77;33.90;;;;;;;-1.53;97.56;100753.80;1818443;77;27320;-62
2024/03/19 01:44:01;;;;;;;64.00;33.67;;;;;;;-1.49;97.71;100758.16;1818623;77;25566;-58
2024/03/19 01:46:29;;;;;;;67.17;32.55;;;;;;;-1.46;97.89;100755.87;1807251;77;26390;-59
2024/03/19 01:48:59;;;;;;;62.78;30.37;;;;;;;-1.44;97.99;100761.77;1820173;77;25940;-61
2024/03/19 01:51:27;;;;;;;56.37;30.52;;;;;;;-1.38;98.20;100765.38;1824256;77;25586;-61
2024/03/19 01:53:58;;;;;;;55.55;30.10;;;;;;;-1.34;98.23;100770.05;1824231;77;28158;-59
2024/03/19 01:56:24;;;;;;;57.88;28.95;;;;;;;-1.31;98.39;100770.14;1821206;77;26085;-61
2024/03/19 01:58:52;;;;;;;57.78;29.65;;;;;;;-1.27;98.33;100776.63;1829743;77;25384;-59
2024/03/19 02:01:20;;;;;;;49.93;28.35;;;;;;;-1.23;98.42;100776.47;1814695;77;34873;-62
2024/03/19 02:03:48;;;;;;;54.67;26.40;;;;;;;-1.19;98.42;100776.84;1827928;77;25384;-60
2024/03/19 02:06:18;;;;;;;49.15;27.25;;;;;;;-1.17;98.38;100780.92;1829227;77;27903;-60
2024/03/19 02:09:09;;;;;;;50.03;26.57;;;;;;;-1.15;98.12;100782.03;1818944;77;25954;-60
2024/03/19 02:11:37;;;;;;;48.38;26.52;;;;;;;-1.14;97.99;100783.67;1832655;77;25459;-63
2024/03/19 02:14:07;;;;;;;48.60;24.98;;;;;;;-1.15;97.73;100791.32;1821282;77;25537;-65
2024/03/19 02:16:36;;;;;;;50.52;25.75;;;;;;;-1.17;97.50;100791.53;1833703;77;26400;-61
2024/03/19 02:19:05;;;;;;;48.60;25.08;;;;;;;-1.18;97.34;100793.88;1835211;77;27240;-59
2024/03/19 02:21:35;;;;;;;49.18;24.40;;;;;;;-1.20;97.17;100792.49;1827504;77;25514;-61
2024/03/19 02:24:05;;;;;;;;;;;;;;;-1.22;97.05;100801.20;1826158;77;25387;-61
2024/03/19 02:26:32;;;;;;;52.17;24.45;;;;;;;-1.25;96.97;100793.66;1835952;77;25634;-61
2024/03/19 02:29:02;;;;;;;42.35;22.60;;;;;;;-1.28;96.87;100795.42;1839953;77;25537;-64
2024/03/19 02:31:31;;;;;;;39.30;22.48;;;;;;;-1.32;96.81;100798.50;1828386;77;27038;-61
2024/03/19 02:34:00;;;;;;;45.17;22.67;;;;;;;-1.34;96.75;100792.61;1831876;77;25716;-60
2024/03/19 02:36:26;;;;;;;44.45;23.12;;;;;;;-1.36;96.71;100799.98;1814517;77;25722;-60
2024/03/19 02:38:56;;;;;;;42.30;21.80;;;;;;;-1.38;96.62;100795.41;1836955;77;25927;-62
2024/03/19 02:41:22;;;;;;;45.92;23.22;;;;;;;-1.41;96.55;100796.36;1819088;77;25445;-63
2024/03/19 02:43:49;;;;;;;42.13;23.18;;;;;;;-1.44;96.49;100793.61;1817858;77;27301;-61
2024/03/19 02:46:18;;;;;;;37.38;21.55;;;;;;;-1.47;96.42;100795.37;1824042;77;25392;-60
2024/03/19 02:48:46;;;;;;;;;;;;;;;-1.48;96.36;100798.23;1829041;77;25464;-62
2024/03/19 02:51:13;;;;;;;35.90;18.87;;;;;;;-1.49;96.49;100800.61;1836171;77;25775;-64
2024/03/19 02:53:39;;;;;;;40.75;20.20;;;;;;;-1.52;96.51;100802.64;1837126;77;25407;-61
2024/03/19 02:56:08;;;;;;;37.95;20.20;;;;;;;-1.54;96.62;100803.90;1837235;77;27402;-62
2024/03/19 02:58:35;;;;;;;36.80;19.25;;;;;;;-1.57;96.64;100802.47;1837731;77;25373;-61
2024/03/19 03:01:01;;;;;;;38.75;20.50;;;;;;;-1.61;96.60;100799.97;1844751;77;25774;-63
2024/03/19 03:03:27;;;;;;;38.17;18.95;;;;;;;-1.62;96.32;100799.66;1817519;77;25542;-63
2024/03/19 03:05:53;;;;;;;41.18;20.48;;;;;;;-1.64;96.35;100800.39;1818539;77;25582;-63
2024/03/19 03:08:20;;;;;;;36.88;19.75;;;;;;;-1.65;96.50;100801.93;1828417;77;27360;-61
2024/03/19 03:10:48;;;;;;;37.85;20.23;;;;;;;-1.67;96.46;100800.81;1834198;77;25814;-60
2024/03/19 03:13:15;;;;;;;33.10;19.00;;;;;;;-1.68;96.52;100801.06;1823316;77;25416;-64
2024/03/19 03:15:41;;;;;;;36.25;19.07;;;;;;;-1.71;96.41;100807.59;1817318;77;25514;-64
2024/03/19 03:18:07;;;;;;;38.63;19.85;;;;;;;-1.73;96.40;100811.78;1824269;77;25762;-62
2024/03/19 03:20:33;;;;;;;33.80;18.05;;;;;;;-1.76;96.32;100804.25;1808529;77;27336;-63
2024/03/19 03:22:59;;;;;;;39.78;19.67;;;;;;;-1.77;96.35;100811.92;1817857;77;25729;-64
2024/03/19 03:25:29;;;;;;;35.27;20.30;;;;;;;-1.79;96.31;100814.48;1817971;77;25642;-62
2024/03/19 03:27:59;;;;;;;32.80;17.92;;;;;;;-1.81;96.39;100815.20;1808538;77;25776;-62
2024/03/19 03:30:28;;;;;;;40.75;19.27;;;;;;;-1.83;96.32;100815.94;1825884;77;25641;-60
2024/03/19 03:32:54;;;;;;;35.73;19.90;;;;;;;-1.85;96.46;100820.13;1830658;77;27358;-63
2024/03/19 03:35:23;;;;;;;36.23;18.57;;;;;;;-1.89;96.37;100818.42;1834053;77;25862;-64
2024/03/19 03:37:49;;;;;;;31.15;17.67;;;;;;;-1.90;96.47;100814.66;1820457;77;25641;-60
2024/03/19 03:40:21;;;;;;;33.33;19.23;;;;;;;-1.90;96.66;100827.91;1813853;77;25362;-63
2024/03/19 03:42:51;;;;;;;33.70;18.05;;;;;;;-1.93;96.61;100826.48;1820251;77;25431;-63
2024/03/19 03:45:21;;;;;;;31.35;16.93;;;;;;;-1.92;96.63;100824.67;1830572;77;27307;-60
2024/03/19 03:47:50;;;;;;;36.88;19.02;;;;;;;-1.95;96.67;100833.04;1821173;77;25807;-64
2024/03/19 03:50:18;;;;;;;33.15;17.65;;;;;;;-1.96;96.76;100832.73;1817641;77;25384;-63
2024/03/19 03:52:45;;;;;;;34.90;17.10;;;;;;;-1.97;96.91;100835.91;1833218;77;25639;-61
2024/03/19 03:55:12;;;;;;;31.48;17.50;;;;;;;-1.97;96.82;100840.41;1817899;77;25812;-62
2024/03/19 03:57:40;;;;;;;34.18;18.23;;;;;;;-2.00;96.64;100835.00;1822213;77;27283;-60
2024/03/19 04:00:10;;;;;;;34.50;18.17;;;;;;;-2.00;96.70;100837.64;1824099;77;25411;-62
2024/03/19 04:02:42;;;;;;;31.12;16.87;;;;;;;-2.02;96.90;100835.73;1817805;77;25722;-62
2024/03/19 04:05:12;;;;;;;31.65;17.02;;;;;;;-2.01;97.15;100841.83;1815227;77;25622;-62
2024/03/19 04:07:44;;;;;;;30.75;16.20;;;;;;;-2.01;97.42;100841.34;1825769;77;26221;-60
2024/03/19 04:10:15;;;;;;;29.85;16.10;;;;;;;-1.98;97.58;100842.22;1832720;77;27871;-64
2024/03/19 04:12:46;;;;;;;31.05;16.85;;;;;;;-1.96;97.88;100838.87;1824199;77;25568;-61
2024/03/19 04:15:13;;;;;;;32.42;16.32;;;;;;;-1.93;98.01;100841.06;1821534;77;25559;-64
2024/03/19 04:17:40;;;;;;;33.15;17.07;;;;;;;-1.90;98.11;100840.65;1840873;77;25587;-62
2024/03/19 04:20:10;;;;;;;33.15;16.32;;;;;;;-1.87;98.22;100835.45;1834828;77;25551;-61
2024/03/19 04:22:39;;;;;;;30.25;15.13;;;;;;;-1.84;98.21;100840.30;1822988;77;28311;-62
2024/03/19 04:25:09;;;;;;;29.00;16.65;;;;;;;-1.82;98.08;100844.06;1817498;77;25580;-62
2024/03/19 04:27:39;;;;;;;32.75;17.52;;;;;;;-1.82;97.95;100840.92;1812133;77;25784;-62
2024/03/19 04:30:10;;;;;;;30.62;16.30;;;;;;;-1.82;97.68;100842.74;1814948;77;25499;-63
2024/03/19 04:32:37;;;;;;;29.45;16.42;;;;;;;-1.83;97.60;100847.24;1824456;77;26112;-62
2024/03/19 04:35:08;;;;;;;32.50;16.77;;;;;;;-1.84;97.50;100845.61;1823234;77;27690;-58
2024/03/19 04:37:34;;;;;;;32.45;16.65;;;;;;;-1.85;97.40;100844.52;1814890;77;25590;-57
2024/03/19 04:40:00;;;;;;;31.07;16.52;;;;;;;-1.86;97.31;100851.64;1826837;77;25506;-57
2024/03/19 04:42:26;;;;;;;33.92;17.60;;;;;;;-1.86;97.26;100853.48;1808412;78;25422;-58
2024/03/19 04:44:52;;;;;;;30.75;16.87;;;;;;;-1.89;97.19;100856.88;1835642;77;25712;-57
2024/03/19 04:47:19;;;;;;;32.25;16.80;;;;;;;-1.89;97.27;100860.85;1831835;77;27279;-57
2024/03/19 04:49:47;;;;;;;29.85;16.32;;;;;;;-1.92;97.31;100863.92;1817536;77;25864;-55
2024/03/19 04:52:13;;;;;;;30.72;16.87;;;;;;;-1.91;97.26;100861.58;1824048;77;25479;-55
2024/03/19 04:54:41;;;;;;;33.42;17.05;;;;;;;-1.92;97.18;100868.42;1824103;77;25418;-58
2024/03/19 04:57:12;;;;;;;30.85;16.70;;;;;;;-1.93;97.19;100867.58;1814989;77;25363;-57
2024/03/19 04:59:39;;;;;;;36.58;17.90;;;;;;;-1.92;97.24;100870.55;1822565;77;27195;-54
2024/03/19 05:02:05;;;;;;;34.15;17.32;;;;;;;-1.92;97.39;100870.55;1819567;77;25443;-55
2024/03/19 05:04:33;;;;;;;31.20;16.90;;;;;;;-1.91;97.30;100880.63;1828805;77;25457;-54
2024/03/19 05:06:59;;;;;;;34.38;19.62;;;;;;;-1.91;97.38;100880.63;1823997;77;25795;-59
2024/03/19 05:09:25;;;;;;;49.70;24.00;;;;;;;-1.90;97.37;100889.70;1836823;77;25365;-57
2024/03/19 05:11:52;;;;;;;58.50;29.70;;;;;;;-1.90;97.49;100891.03;1826875;77;27289;-57
2024/03/19 05:14:18;;;;;;;60.10;32.35;;;;;;;-1.87;97.46;100895.11;1814758;77;25565;-56
2024/03/19 05:16:44;;;;;;;54.75;29.18;;;;;;;-1.86;97.62;100885.31;1821268;77;25871;-56
2024/03/19 05:19:10;;;;;;;52.45;27.98;;;;;;;-1.85;97.84;100886.95;1814733;77;27430;-59
2024/03/19 05:21:39;;;;;;;46.68;23.35;;;;;;;-1.83;97.85;100885.70;1830593;77;25539;-56
2024/03/19 05:24:07;;;;;;;38.25;21.70;;;;;;;-1.81;97.86;100886.81;1817454;77;27302;-54
2024/03/19 05:26:33;;;;;;;34.78;19.25;;;;;;;-1.79;97.96;100880.78;1808275;77;25495;-56
2024/03/19 05:28:59;;;;;;;33.40;18.77;;;;;;;-1.75;98.15;100888.63;1842484;77;25541;-56
2024/03/19 05:31:29;;;;;;;36.25;18.87;;;;;;;-1.70;98.22;100886.16;1823400;77;25340;-56
2024/03/19 05:33:59;;;;;;;34.53;17.98;;;;;;;-1.65;98.37;100903.57;1835152;77;25492;-57
2024/03/19 05:36:25;;;;;;;33.88;17.95;;;;;;;-1.60;98.50;100890.48;1835593;77;27308;-57
2024/03/19 05:38:52;;;;;;;30.25;16.95;;;;;;;-1.54;98.68;100890.13;1832008;77;25656;-53
2024/03/19 05:41:20;;;;;;;31.52;17.50;;;;;;;-1.48;98.91;100891.11;1837801;77;25877;-56
2024/03/19 05:43:50;;;;;;;29.12;16.52;;;;;;;-1.40;99.30;100898.81;1833201;77;27468;-57
2024/03/19 05:46:19;;;;;;;31.17;16.87;;;;;;;-1.32;99.61;100897.23;1835949;77;25541;-56
2024/03/19 05:48:45;;;;;;;30.97;16.10;;;;;;;-1.25;99.87;100896.66;1827740;77;28294;-57
2024/03/19 05:51:14;;;;;;;31.57;16.57;;;;;;;-1.13;100.00;100898.91;1827136;77;25742;-55
2024/03/19 05:53:41;;;;;;;28.17;16.77;;;;;;;-1.03;100.00;100898.44;1821141;77;25470;-54
2024/03/19 05:56:10;;;;;;;27.30;15.40;;;;;;;-0.92;100.00;100898.23;1826566;77;27643;-56
2024/03/19 05:58:36;;;;;;;29.98;15.63;;;;;;;-0.81;100.00;100903.37;1831186;77;25747;-53
2024/03/19 06:01:07;;;;;;;29.75;15.43;;;;;;;-0.66;100.00;100903.03;1818713;77;27420;-54
2024/03/19 06:03:33;;;;;;;27.25;15.98;;;;;;;-0.52;100.00;100900.53;1827676;77;25789;-55
2024/03/19 06:06:09;;;;;;;31.52;16.00;;;;;;;-0.39;100.00;100899.59;1827743;77;25379;-55
2024/03/19 06:08:39;;;;;;;26.97;15.88;;;;;;;-0.25;100.00;100897.59;1827421;77;25875;-56
2024/03/19 06:11:10;;;;;;;28.73;16.17;;;;;;;-0.09;100.00;100906.81;1823221;77;25663;-56
2024/03/19 06:13:37;;;;;;;27.35;15.88;;;;;;;0.03;100.00;100893.58;1825129;77;27944;-57
2024/03/19 06:16:10;;;;;;;29.15;16.67;;;;;;;0.22;100.00;100904.99;1822891;77;26231;-56
2024/03/19 06:18:37;;;;;;;33.08;17.65;;;;;;;0.40;100.00;100904.16;1822912;77;25701;-56
2024/03/19 06:21:05;;;;;;;32.08;16.55;;;;;;;0.57;100.00;100908.31;1827009;77;25847;-57
2024/03/19 06:23:31;;;;;;;31.37;18.37;;;;;;;0.71;100.00;100907.87;1827678;77;25680;-55
2024/03/19 06:25:57;;;;;;;29.75;17.30;;;;;;;0.86;100.00;100911.97;1828061;77;27331;-57
2024/03/19 06:28:23;;;;;;;27.65;17.10;;;;;;;1.06;100.00;100907.13;1834060;77;25629;-56
2024/03/19 06:30:53;;;;;;;35.65;17.62;;;;;;;1.25;100.00;100913.16;1817662;77;25832;-54
2024/03/19 06:33:20;;;;;;;32.60;18.45;;;;;;;1.47;100.00;100911.25;1818492;77;25617;-57
2024/03/19 06:35:50;;;;;;;34.83;18.82;;;;;;;1.65;100.00;100915.63;1829736;77;25433;-56
2024/03/19 06:38:16;;;;;;;31.95;18.25;;;;;;;1.82;100.00;100924.55;1832312;77;29454;-58
2024/03/19 06:40:47;;;;;;;32.73;17.80;;;;;;;2.03;100.00;100924.97;1815896;77;25597;-58
2024/03/19 06:43:13;;;;;;;31.42;18.55;;;;;;;2.22;100.00;100925.06;1827615;77;25798;-57
2024/03/19 06:45:40;;;;;;;27.30;17.60;;;;;;;2.47;100.00;100928.45;1824046;77;25782;-57
2024/03/19 06:48:09;;;;;;;27.40;17.50;;;;;;;2.65;100.00;100920.23;1817688;77;25724;-55
2024/03/19 06:50:37;;;;;;;31.60;18.60;;;;;;;2.90;100.00;100927.08;1829792;77;28186;-57
2024/03/19 06:53:05;;;;;;;33.83;19.00;;;;;;;3.20;100.00;100931.28;1824346;77;26098;-56
2024/03/19 06:55:32;;;;;;;28.60;17.75;;;;;;;3.39;100.00;100922.47;1818386;77;25388;-54
2024/03/19 06:57:59;;;;;;;30.30;18.45;;;;;;;3.61;100.00;100927.36;1820993;77;25589;-55
2024/03/19 07:00:26;;;;;;;187.22;124.70;;;;;;;3.92;100.00;100922.41;1820880;77;25470;-57
2024/03/19 07:02:55;;;;;;;35.23;23.30;;;;;;;4.17;100.00;100923.75;1838040;77;27364;-53
2024/03/19 07:05:22;;;;;;;30.52;17.77;;;;;;;4.44;100.00;100922.44;1824050;77;25374;-58
2024/03/19 07:07:58;;;;;;;25.27;15.60;;;;;;;4.73;100.00;100922.18;1814709;77;25803;-55
2024/03/19 07:10:28;;;;;;;25.70;15.08;;;;;;;5.04;100.00;100927.29;1817564;77;25558;-58
2024/03/19 07:12:54;;;;;;;24.20;15.48;;;;;;;5.37;100.00;100932.88;1812464;77;25832;-55
2024/03/19 07:15:23;;;;;;;24.55;16.12;;;;;;;5.69;100.00;100929.86;1822480;77;27428;-56
2024/03/19 07:17:51;;;;;;;24.07;16.97;;;;;;;5.95;100.00;100945.55;1825168;77;25530;-53
2024/03/19 07:20:19;;;;;;;23.22;14.25;;;;;;;6.17;99.33;100944.86;1808254;77;25839;-54
2024/03/19 07:22:49;;;;;;;19.85;13.72;;;;;;;6.33;96.71;100947.08;1812043;77;25382;-55
2024/03/19 07:25:19;;;;;;;23.10;15.65;;;;;;;6.46;95.55;100944.95;1822109;77;25403;-56
2024/03/19 07:27:48;;;;;;;21.33;14.38;;;;;;;6.67;95.96;100948.48;1833482;77;28339;-53
2024/03/19 07:30:17;;;;;;;20.72;14.20;;;;;;;6.97;94.96;100950.95;1816086;77;25643;-57
2024/03/19 07:32:45;;;;;;;34.65;14.85;;;;;;;6.97;91.64;100945.56;1817128;77;25421;-56
2024/03/19 07:35:11;;;;;;;25.92;13.85;;;;;;;6.94;90.41;100947.44;1828456;77;25728;-55
2024/03/19 07:37:41;;;;;;;24.92;15.10;;;;;;;7.09;91.13;100950.94;1819760;77;25731;-56
2024/03/19 07:40:13;;;;;;;21.87;14.10;;;;;;;7.18;90.45;100944.47;1821856;77;28100;-56
2024/03/19 07:42:41;;;;;;;24.20;14.00;;;;;;;7.31;89.53;100952.55;1813802;77;25909;-55
2024/03/19 07:45:10;;;;;;;39.42;24.52;;;;;;;7.32;88.71;100956.86;1836287;77;25491;-57
2024/03/19 07:47:37;;;;;;;48.17;28.70;;;;;;;7.39;88.92;100954.70;1831318;77;26409;-56
2024/03/19 07:50:07;;;;;;;30.90;14.98;;;;;;;7.60;89.08;100952.77;1815007;77;25478;-56
2024/03/19 07:52:35;;;;;;;22.10;14.58;;;;;;;7.82;87.66;100961.07;1829075;77;27895;-56
2024/03/19 07:55:04;;;;;;;20.32;13.78;;;;;;;7.95;86.40;100963.19;1839855;77;25716;-54
2024/03/19 07:57:31;;;;;;;19.62;12.90;;;;;;;8.23;86.05;100964.96;1811655;77;25651;-53
2024/03/19 08:00:05;;;;;;;17.65;12.03;;;;;;;8.26;83.85;100964.93;1817615;77;25513;-53
2024/03/19 08:02:26;;;;;;;16.48;11.12;;;;;;;8.16;83.54;100967.95;1814376;77;25766;-55
2024/03/19 08:04:52;;;;;;;16.60;11.75;;;;;;;8.06;81.73;100965.84;1839363;77;27259;-51
2024/03/19 08:07:20;;;;;;;15.83;11.90;;;;;;;8.01;81.83;100974.75;1823102;77;25619;-56
2024/03/19 08:09:47;;;;;;;16.05;11.28;;;;;;;8.71;82.64;100973.90;1821607;77;25758;-58
2024/03/19 08:12:15;;;;;;;17.98;11.12;;;;;;;9.57;84.18;100973.47;1808387;77;25789;-58
2024/03/19 08:14:43;;;;;;;15.43;10.68;;;;;;;9.95;81.24;100985.79;1808502;77;25408;-55
2024/03/19 08:17:11;;;;;;;16.30;10.70;;;;;;;10.14;79.28;100981.78;1817858;77;27674;-57
2024/03/19 08:19:39;;;;;;;17.32;10.60;;;;;;;10.12;78.09;100983.97;1820374;77;25834;-55
2024/03/19 08:22:05;;;;;;;14.15;10.63;;;;;;;9.88;76.14;100984.78;1808386;77;25410;-55
2024/03/19 08:24:33;;;;;;;14.75;10.18;;;;;;;9.64;75.60;100976.66;1825836;77;25558;-58
2024/03/19 08:26:59;;;;;;;14.40;9.73;;;;;;;9.54;75.37;100985.11;1818678;77;25527;-56
2024/03/19 08:29:28;;;;;;;12.23;9.00;;;;;;;9.28;74.31;100987.25;1817744;77;27297;-58
2024/03/19 08:31:54;;;;;;;16.67;9.83;;;;;;;8.98;73.79;100982.89;1834919;77;25515;-57
2024/03/19 08:34:20;;;;;;;13.95;9.03;;;;;;;8.73;74.08;100987.35;1808577;78;25865;-57
2024/03/19 08:36:46;;;;;;;13.43;8.58;;;;;;;8.42;73.43;100994.78;1808554;77;25794;-57
2024/03/19 08:39:12;;;;;;;12.18;8.98;;;;;;;8.12;73.33;100987.62;1821012;77;25676;-57
2024/03/19 08:41:38;;;;;;;13.03;9.00;;;;;;;7.77;73.58;100992.05;1832536;77;27264;-55
2024/03/19 08:44:05;;;;;;;12.23;8.60;;;;;;;7.54;74.06;100992.87;1818128;77;26708;-58
2024/03/19 08:46:31;;;;;;;10.80;8.28;;;;;;;7.48;74.19;100996.13;1826443;77;25806;-57
2024/03/19 08:48:59;;;;;;;12.88;8.35;;;;;;;7.36;74.79;101006.91;1816979;77;25840;-54
2024/03/19 08:51:25;;;;;;;11.10;8.40;;;;;;;7.32;75.20;101012.55;1823549;77;25337;-57
2024/03/19 08:53:52;;;;;;;11.57;8.43;;;;;;;7.17;74.99;101008.80;1821126;77;27779;-59
2024/03/19 08:56:19;;;;;;;10.98;8.83;;;;;;;7.27;75.07;101007.45;1825747;77;25454;-58
2024/03/19 08:58:45;;;;;;;44.50;32.40;;;;;;;7.84;77.83;101006.04;1820495;77;25315;-56
2024/03/19 09:01:15;;;;;;;19.37;13.00;;;;;;;8.85;77.80;101005.89;1809488;77;27672;-59
2024/03/19 09:03:41;;;;;;;10.00;8.00;;;;;;;9.59;77.35;101004.52;1824683;77;25488;-57
2024/03/19 09:06:07;;;;;;;11.80;7.50;;;;;;;10.32;75.35;101014.02;1815011;77;28312;-57
2024/03/19 09:08:34;;;;;;;10.40;8.38;;;;;;;10.19;72.42;101009.55;1821355;77;25646;-58
2024/03/19 09:11:00;;;;;;;12.23;8.45;;;;;;;9.85;70.95;101005.06;1828655;77;25810;-57
2024/03/19 09:13:27;;;;;;;12.55;9.60;;;;;;;9.51;70.32;101011.33;1823436;77;25837;-55
2024/03/19 09:15:53;;;;;;;13.30;8.23;;;;;;;9.32;71.76;101003.13;1808459;77;25686;-54
2024/03/19 09:18:19;;;;;;;12.18;7.85;;;;;;;9.59;72.21;101001.02;1808488;78;27305;-60
2024/03/19 09:20:47;;;;;;;11.05;7.97;;;;;;;9.48;70.96;101006.52;1826076;77;25794;-55
2024/03/19 09:23:14;;;;;;;14.07;8.43;;;;;;;9.31;69.43;100998.01;1820733;77;25412;-57
2024/03/19 09:25:42;;;;;;;11.25;7.53;;;;;;;9.29;72.09;101000.98;1830619;77;25474;-57
2024/03/19 09:28:10;;;;;;;11.50;7.08;;;;;;;10.33;73.09;100994.02;1826883;77;25826;-55
2024/03/19 09:30:38;;;;;;;9.35;7.42;;;;;;;11.53;73.21;101002.23;1824115;77;27300;-54
2024/03/19 09:33:09;;;;;;;15.53;11.03;;;;;;;12.42;69.33;100991.58;1824159;77;25420;-57
2024/03/19 09:35:35;;;;;;;24.98;20.60;;;;;;;12.98;70.28;100994.16;1814384;77;25832;-55
2024/03/19 09:38:02;;;;;;;8.18;6.72;;;;;;;13.42;68.80;101000.16;1817725;77;25589;-54
2024/03/19 09:40:28;;;;;;;8.58;6.92;;;;;;;13.33;65.26;100991.16;1832044;77;25351;-54
2024/03/19 09:42:54;;;;;;;10.53;7.20;;;;;;;13.33;64.42;100983.55;1834387;77;28119;-58
2024/03/19 09:45:29;;;;;;;9.68;7.25;;;;;;;13.75;64.97;100990.31;1829820;77;25785;-57
2024/03/19 09:47:57;;;;;;;9.43;6.97;;;;;;;13.84;63.55;100983.55;1826868;77;25570;-58
2024/03/19 09:50:28;;;;;;;11.05;7.08;;;;;;;14.06;63.22;100978.59;1831240;77;25736;-56
2024/03/19 09:52:57;;;;;;;10.60;8.03;;;;;;;14.03;61.33;100992.02;1821587;77;25370;-59
2024/03/19 09:55:26;;;;;;;8.85;7.47;;;;;;;13.84;61.26;100995.79;1833247;77;27197;-59
2024/03/19 09:57:58;;;;;;;9.18;7.53;;;;;;;13.97;61.65;100996.81;1823944;77;33280;-54
2024/03/19 10:00:29;;;;;;;9.58;6.83;;;;;;;14.60;61.47;100983.85;1835574;77;25581;-58
2024/03/19 10:02:55;;;;;;;8.20;6.83;;;;;;;14.82;60.01;100990.28;1817608;77;26012;-58
2024/03/19 10:05:22;;;;;;;8.13;6.45;;;;;;;14.86;59.04;100990.66;1817706;77;25936;-58
2024/03/19 10:07:54;;;;;;;9.15;7.20;;;;;;;14.57;57.58;100987.17;1817714;77;27875;-57
2024/03/19 10:10:24;;;;;;;10.98;8.43;;;;;;;14.37;57.73;100984.53;1821260;77;25770;-57
2024/03/19 10:12:51;;;;;;;9.60;7.20;;;;;;;14.48;57.00;100984.45;1828056;77;25189;-58
2024/03/19 10:15:24;;;;;;;7.87;6.42;;;;;;;14.53;56.85;100985.66;1829123;77;25613;-57
2024/03/19 10:17:51;;;;;;;9.83;6.90;;;;;;;14.49;56.68;100987.42;1817634;77;25390;-57
2024/03/19 10:20:19;;;;;;;8.65;6.83;;;;;;;14.24;55.70;100984.89;1831417;77;27305;-55
2024/03/19 10:22:47;;;;;;;8.65;6.47;;;;;;;13.81;54.90;100986.92;1825881;77;26788;-57
2024/03/19 10:25:17;;;;;;;10.10;6.37;;;;;;;13.39;55.50;100989.89;1808349;77;25529;-54
2024/03/19 10:27:50;;;;;;;10.32;7.28;;;;;;;13.06;55.00;100990.70;1828475;77;25371;-57
2024/03/19 10:30:21;;;;;;;10.00;6.83;;;;;;;12.69;55.46;100988.00;1821709;77;25399;-56
2024/03/19 10:32:51;;;;;;;8.05;6.55;;;;;;;12.32;55.80;100990.44;1832605;77;27938;-57
2024/03/19 10:35:24;;;;;;;10.00;7.45;;;;;;;11.96;55.54;100996.59;1829469;77;25773;-57
2024/03/19 10:37:55;;;;;;;10.25;7.53;;;;;;;11.59;55.60;100999.14;1816609;77;25346;-52
2024/03/19 10:40:22;;;;;;;10.43;7.62;;;;;;;11.30;56.39;100995.84;1817246;77;26216;-55
2024/03/19 10:42:50;;;;;;;9.73;7.80;;;;;;;11.47;59.52;100997.44;1845241;77;25611;-57
2024/03/19 10:45:21;;;;;;;13.00;7.97;;;;;;;12.68;60.92;100994.56;1818594;77;27298;-55
2024/03/19 10:47:52;;;;;;;12.53;7.65;;;;;;;13.53;57.60;100993.09;1836127;77;25838;-56
2024/03/19 10:50:24;;;;;;;12.20;8.13;;;;;;;14.11;57.43;100992.61;1830635;77;25424;-54
2024/03/19 10:53:08;;;;;;;27.80;18.82;;;;;;;14.26;56.06;100992.17;1828420;77;25831;-56
2024/03/19 10:55:38;;;;;;;33.40;27.90;;;;;;;13.96;54.90;100997.38;1832682;77;25825;-58
2024/03/19 10:58:14;;;;;;;8.73;7.15;;;;;;;13.48;53.70;100989.15;1825824;77;27406;-58
2024/03/19 11:00:42;;;;;;;10.82;7.30;;;;;;;12.99;53.70;100991.66;1821230;77;25438;-57
2024/03/19 11:03:16;;;;;;;9.98;7.70;;;;;;;12.55;54.03;100991.85;1817422;77;25631;-58
2024/03/19 11:05:51;;;;;;;8.28;7.03;;;;;;;12.12;53.99;100988.41;1831011;77;25894;-56
2024/03/19 11:08:20;;;;;;;9.28;7.90;;;;;;;11.74;54.45;100995.33;1818183;77;25720;-57
2024/03/19 11:10:49;;;;;;;10.38;7.37;;;;;;;11.36;54.85;100991.96;1817627;77;27310;-58
2024/03/19 11:13:22;;;;;;;10.13;7.12;;;;;;;11.02;55.47;100991.69;1831271;77;25987;-58
2024/03/19 11:15:50;;;;;;;11.15;7.28;;;;;;;10.82;55.91;100988.74;1801399;78;25603;-57
2024/03/19 11:18:20;;;;;;;8.00;6.25;;;;;;;11.14;58.33;100981.77;1814900;77;25824;-55